Time;durP1;ratioP1;P1;durP2;ratioP2;P2;SDS_P1;SDS_P2;PMS_P1;PMS_P2;Temp;Humidity;BMP_temperature;BMP_pressure;BME280_temperature;BME280_humidity;BME280_pressure;Samples;Min_cycle;Max_cycle;Signal;HPM_P1;HPM_P2
2023/06/13 00:03:13;;;;;;;3.17;2.33;;;;;;;;;;12886052;23;20023;-82
2023/06/13 00:08:18;;;;;;;3.50;2.53;;;;;;;;;;12884343;23;20020;-83
2023/06/13 00:13:24;;;;;;;3.00;2.43;;;;;;;;;;12877246;23;20031;-83
2023/06/13 00:18:30;;;;;;;2.28;2.08;;;;;;;;;;12873738;23;20020;-84
2023/06/13 00:23:34;;;;;;;4.20;2.25;;;;;;;;;;12878089;23;20039;-82
2023/06/13 00:28:38;;;;;;;3.17;2.00;;;;;;;;;;12884309;23;20051;-82
2023/06/13 00:33:43;;;;;;;3.10;2.63;;;;;;;;;;12885307;23;20433;-82
2023/06/13 00:38:47;;;;;;;4.85;2.25;;;;;;;;;;12884128;23;20029;-82
2023/06/13 00:43:52;;;;;;;2.28;2.03;;;;;;;;;;12911205;23;20058;-82
2023/06/13 00:48:58;;;;;;;2.25;2.00;;;;;;;;;;12883494;23;20047;-82
2023/06/13 00:54:02;;;;;;;4.70;2.10;;;;;;;;;;12886405;23;20032;-82
2023/06/13 00:59:08;;;;;;;3.58;1.92;;;;;;;;;;12886439;23;20020;-82
2023/06/13 01:04:13;;;;;;;2.88;2.00;;;;;;;;;;12888944;23;20051;-82
2023/06/13 01:09:17;;;;;;;2.20;1.92;;;;;;;;;;12889140;23;20047;-82
2023/06/13 01:14:34;;;;;;;2.95;2.60;;;;;;;;;;12921893;23;20024;-82
2023/06/13 01:19:40;;;;;;;2.80;2.30;;;;;;;;;;12917364;23;20016;-82
2023/06/13 01:24:52;;;;;;;4.38;2.13;;;;;;;;;;12888197;22;20459;-82
2023/06/13 01:29:57;;;;;;;2.72;2.28;;;;;;;;;;12914596;23;20047;-82
2023/06/13 01:35:02;;;;;;;2.80;2.33;;;;;;;;;;12909630;22;20032;-82
2023/06/13 01:40:07;;;;;;;3.50;2.40;;;;;;;;;;12888902;23;20020;-82
2023/06/13 01:45:13;;;;;;;3.07;2.57;;;;;;;;;;12914545;22;20028;-82
2023/06/13 01:50:25;;;;;;;3.37;2.50;;;;;;;;;;12916467;23;20686;-82
2023/06/13 01:55:33;;;;;;;2.63;1.88;;;;;;;;;;12888221;22;20031;-82
2023/06/13 02:00:41;;;;;;;2.95;2.30;;;;;;;;;;12888872;23;20030;-82
2023/06/13 02:05:45;;;;;;;2.92;2.22;;;;;;;;;;12914450;22;20076;-82
2023/06/13 02:10:50;;;;;;;3.30;2.37;;;;;;;;;;12889632;23;20716;-82
2023/06/13 02:15:55;;;;;;;3.20;2.10;;;;;;;;;;12889810;22;20024;-82
2023/06/13 02:20:58;;;;;;;3.30;2.10;;;;;;;;;;12883202;23;20016;-83
2023/06/13 02:26:03;;;;;;;2.58;1.95;;;;;;;;;;12876088;22;20082;-83
2023/06/13 02:31:08;;;;;;;2.15;1.92;;;;;;;;;;12876449;23;20052;-83
2023/06/13 02:36:12;;;;;;;2.42;1.92;;;;;;;;;;12875788;22;20085;-83
2023/06/13 02:41:17;;;;;;;3.08;2.35;;;;;;;;;;12877188;23;20107;-83
2023/06/13 02:46:22;;;;;;;3.28;2.42;;;;;;;;;;12920337;22;20115;-83
2023/06/13 02:51:26;;;;;;;4.63;2.33;;;;;;;;;;12878417;23;20028;-83
2023/06/13 02:56:29;;;;;;;3.72;2.70;;;;;;;;;;12877548;22;20016;-84
2023/06/13 03:01:34;;;;;;;3.33;2.45;;;;;;;;;;12877996;23;20024;-84
2023/06/13 03:06:44;;;;;;;2.47;2.22;;;;;;;;;;12878475;22;20031;-83
2023/06/13 03:11:49;;;;;;;3.05;2.30;;;;;;;;;;12919420;23;20359;-83
2023/06/13 03:16:56;;;;;;;2.60;2.03;;;;;;;;;;12877643;22;20028;-84
2023/06/13 03:22:01;;;;;;;2.45;2.10;;;;;;;;;;12878945;23;20028;-83
2023/06/13 03:27:08;;;;;;;3.60;2.38;;;;;;;;;;12877865;22;20043;-84
2023/06/13 03:32:13;;;;;;;2.85;2.20;;;;;;;;;;12876729;23;20031;-83
2023/06/13 03:37:18;;;;;;;2.60;2.20;;;;;;;;;;12899440;22;20031;-84
2023/06/13 03:42:21;;;;;;;3.30;2.53;;;;;;;;;;12875713;23;20409;-83
2023/06/13 03:47:28;;;;;;;2.33;2.10;;;;;;;;;;12874439;22;20099;-83
2023/06/13 03:52:32;;;;;;;2.88;2.42;;;;;;;;;;12875082;23;20020;-82
2023/06/13 03:57:36;;;;;;;2.53;2.28;;;;;;;;;;12873956;23;20020;-83
2023/06/13 04:02:41;;;;;;;2.58;2.30;;;;;;;;;;12876160;23;20024;-83
2023/06/13 04:07:47;;;;;;;3.70;2.58;;;;;;;;;;12874751;23;20111;-83
2023/06/13 04:12:50;;;;;;;3.03;1.92;;;;;;;;;;12875606;23;20024;-84
2023/06/13 04:17:55;;;;;;;3.33;2.40;;;;;;;;;;12874545;23;20024;-83
2023/06/13 04:22:58;;;;;;;3.78;2.60;;;;;;;;;;12901161;23;20123;-83
2023/06/13 04:28:02;;;;;;;3.08;2.30;;;;;;;;;;12873885;23;20020;-84
2023/06/13 04:33:14;;;;;;;2.92;2.40;;;;;;;;;;12911409;23;20568;-83
2023/06/13 04:38:20;;;;;;;2.60;2.10;;;;;;;;;;12878925;23;20505;-83
2023/06/13 04:43:23;;;;;;;2.75;2.45;;;;;;;;;;12879434;23;20020;-83
2023/06/13 04:48:28;;;;;;;2.55;2.05;;;;;;;;;;12877276;23;20078;-82
2023/06/13 04:53:32;;;;;;;4.22;2.65;;;;;;;;;;12879501;23;20080;-83
2023/06/13 04:58:36;;;;;;;2.97;2.05;;;;;;;;;;12883700;23;20020;-82
2023/06/13 05:03:42;;;;;;;2.92;2.08;;;;;;;;;;12939637;23;20024;-81
2023/06/13 05:08:45;;;;;;;3.63;2.03;;;;;;;;;;12908003;23;20020;-82
2023/06/13 05:13:49;;;;;;;3.47;2.00;;;;;;;;;;12902698;23;20047;-82
2023/06/13 05:18:57;;;;;;;4.75;1.95;;;;;;;;;;12926613;22;20027;-82
2023/06/13 05:24:00;;;;;;;3.05;2.05;;;;;;;;;;12928067;23;20028;-81
2023/06/13 05:29:05;;;;;;;2.65;2.05;;;;;;;;;;12927866;22;20020;-82
2023/06/13 05:34:10;;;;;;;2.22;1.90;;;;;;;;;;12903856;23;20669;-82
2023/06/13 05:39:13;;;;;;;6.38;1.95;;;;;;;;;;12878482;23;20396;-84
2023/06/13 05:44:17;;;;;;;6.32;2.40;;;;;;;;;;12878244;23;20028;-83
2023/06/13 05:49:22;;;;;;;5.07;2.00;;;;;;;;;;12907387;22;20020;-84
2023/06/13 05:54:25;;;;;;;5.30;2.35;;;;;;;;;;12878171;23;20027;-83
2023/06/13 05:59:29;;;;;;;5.05;2.33;;;;;;;;;;12877922;23;20016;-83
2023/06/13 06:04:33;;;;;;;6.60;2.40;;;;;;;;;;12878757;22;20028;-83
2023/06/13 06:09:37;;;;;;;6.38;3.67;;;;;;;;;;12904971;23;20704;-83
2023/06/13 06:14:40;;;;;;;3.58;2.40;;;;;;;;;;12904887;22;20028;-83
2023/06/13 06:19:53;;;;;;;4.90;2.65;;;;;;;;;;12904242;23;20031;-84
2023/06/13 06:24:56;;;;;;;4.22;1.70;;;;;;;;;;12905850;22;20024;-83
2023/06/13 06:30:00;;;;;;;5.40;3.25;;;;;;;;;;12908017;23;20047;-83
2023/06/13 06:35:05;;;;;;;2.97;2.08;;;;;;;;;;12905860;22;20024;-84
2023/06/13 06:40:09;;;;;;;4.00;1.60;;;;;;;;;;12880683;23;20025;-84
2023/06/13 06:45:13;;;;;;;2.38;1.65;;;;;;;;;;12874996;22;20028;-83
2023/06/13 06:50:18;;;;;;;3.67;1.30;;;;;;;;;;12875922;23;20020;-83
2023/06/13 06:55:21;;;;;;;1.60;1.10;;;;;;;;;;12874596;22;20024;-84
2023/06/13 07:00:25;;;;;;;5.75;1.27;;;;;;;;;;12923910;23;20400;-83
2023/06/13 07:05:29;;;;;;;2.55;1.10;;;;;;;;;;12874856;22;20020;-84
2023/06/13 07:10:33;;;;;;;1.17;0.93;;;;;;;;;;12876261;23;20341;-84
2023/06/13 07:15:36;;;;;;;2.72;1.40;;;;;;;;;;12874459;22;20027;-82
2023/06/13 07:20:41;;;;;;;2.92;1.38;;;;;;;;;;12921324;23;20020;-83
2023/06/13 07:25:44;;;;;;;1.48;1.23;;;;;;;;;;12873762;22;20028;-84
2023/06/13 07:30:48;;;;;;;1.27;1.15;;;;;;;;;;12902847;23;20031;-83
2023/06/13 07:35:53;;;;;;;1.65;1.20;;;;;;;;;;12901477;22;20475;-83
2023/06/13 07:40:56;;;;;;;2.47;1.10;;;;;;;;;;12875190;23;20055;-84
2023/06/13 07:46:00;;;;;;;2.30;1.17;;;;;;;;;;12874344;22;20031;-83
2023/06/13 07:51:05;;;;;;;2.67;1.40;;;;;;;;;;12902548;23;20027;-83
2023/06/13 07:56:08;;;;;;;1.55;1.20;;;;;;;;;;12874199;22;20403;-83
2023/06/13 08:01:12;;;;;;;3.38;1.50;;;;;;;;;;12875371;23;20031;-84
2023/06/13 08:06:16;;;;;;;1.92;1.20;;;;;;;;;;12874080;22;20020;-84
2023/06/13 08:11:20;;;;;;;2.45;1.10;;;;;;;;;;12901870;23;20057;-84
2023/06/13 08:16:23;;;;;;;3.25;1.38;;;;;;;;;;12873858;22;20036;-84
2023/06/13 08:21:28;;;;;;;2.30;1.52;;;;;;;;;;12917259;23;20515;-83
2023/06/13 08:26:32;;;;;;;2.58;1.73;;;;;;;;;;12915830;22;20078;-84
2023/06/13 08:31:36;;;;;;;1.70;1.35;;;;;;;;;;12902595;23;20024;-85
2023/06/13 08:36:48;;;;;;;1.98;1.50;;;;;;;;;;12874208;22;20082;-84
2023/06/13 08:41:53;;;;;;;3.53;1.70;;;;;;;;;;12874367;23;20028;-84
2023/06/13 08:46:56;;;;;;;2.83;1.60;;;;;;;;;;12900015;22;20020;-84
2023/06/13 08:52:03;;;;;;;4.50;1.63;;;;;;;;;;12874341;23;20070;-83
2023/06/13 08:57:07;;;;;;;2.20;1.60;;;;;;;;;;12872317;22;20036;-84
2023/06/13 09:02:15;;;;;;;1.50;1.20;;;;;;;;;;12912269;23;20458;-83
2023/06/13 09:07:21;;;;;;;1.77;1.42;;;;;;;;;;12872215;22;20031;-83
2023/06/13 09:12:26;;;;;;;2.55;1.83;;;;;;;;;;12874379;23;20048;-84
2023/06/13 09:17:29;;;;;;;3.30;1.90;;;;;;;;;;12910272;22;20031;-84
2023/06/13 09:22:35;;;;;;;2.63;1.60;;;;;;;;;;12875522;23;20535;-84
2023/06/13 09:27:39;;;;;;;1.42;1.30;;;;;;;;;;12877731;23;20043;-84
2023/06/13 09:32:49;;;;;;;2.90;1.58;;;;;;;;;;12878035;23;20047;-83
2023/06/13 09:37:54;;;;;;;2.72;1.40;;;;;;;;;;12903324;22;20031;-84
2023/06/13 09:43:00;;;;;;;1.92;1.55;;;;;;;;;;12914654;23;20036;-83
2023/06/13 09:48:07;;;;;;;3.20;1.58;;;;;;;;;;12904287;22;20034;-83
2023/06/13 09:53:11;;;;;;;1.50;1.20;;;;;;;;;;12878202;23;20031;-84
2023/06/13 09:58:15;;;;;;;1.63;1.20;;;;;;;;;;12878122;23;20039;-83
2023/06/13 10:03:30;;;;;;;2.37;1.30;;;;;;;;;;12912458;23;20103;-83
2023/06/13 10:08:35;;;;;;;2.55;1.35;;;;;;;;;;12905837;22;20486;-83
2023/06/13 10:13:47;;;;;;;1.37;1.27;;;;;;;;;;12879873;23;20028;-83
2023/06/13 10:18:54;;;;;;;2.58;1.40;;;;;;;;;;12876997;23;20061;-83
2023/06/13 10:24:00;;;;;;;1.83;1.63;;;;;;;;;;12903718;23;20031;-82
2023/06/13 10:29:38;;;;;;;1.80;1.60;;;;;;;;;;12876605;23;20383;-83
2023/06/13 10:35:13;;;;;;;4.47;1.90;;;;;;;;;;12902271;22;20632;-83
2023/06/13 10:40:42;;;;;;;1.40;1.30;;;;;;;;;;12876383;23;20031;-84
2023/06/13 10:45:47;;;;;;;1.80;1.48;;;;;;;;;;12877565;22;20020;-83
2023/06/13 10:50:50;;;;;;;2.22;1.60;;;;;;;;;;12878295;23;20012;-83
2023/06/13 10:56:00;;;;;;;2.03;1.23;;;;;;;;;;12876020;22;20020;-83
2023/06/13 11:01:26;;;;;;;3.05;1.63;;;;;;;;;;12905453;23;20690;-83
2023/06/13 11:06:29;;;;;;;2.53;1.27;;;;;;;;;;12877646;22;20513;-83
2023/06/13 11:11:40;;;;;;;2.40;1.30;;;;;;;;;;12904216;23;20054;-83
2023/06/13 11:16:45;;;;;;;2.05;1.60;;;;;;;;;;12916966;22;20027;-83
2023/06/13 11:21:52;;;;;;;1.70;1.60;;;;;;;;;;12876849;23;20470;-83
2023/06/13 11:26:59;;;;;;;2.38;1.30;;;;;;;;;;12876094;22;20039;-83
2023/06/13 11:32:04;;;;;;;1.65;1.30;;;;;;;;;;12876214;23;20487;-84
2023/06/13 11:37:13;;;;;;;3.33;1.60;;;;;;;;;;12875214;22;20024;-83
2023/06/13 11:42:18;;;;;;;1.40;1.27;;;;;;;;;;12876418;23;20040;-84
2023/06/13 11:47:22;;;;;;;1.38;1.00;;;;;;;;;;12914436;22;20471;-83
2023/06/13 11:52:25;;;;;;;4.32;1.98;;;;;;;;;;12914242;23;20581;-84
2023/06/13 11:57:46;;;;;;;2.55;1.60;;;;;;;;;;12874653;23;20484;-83
2023/06/13 12:02:50;;;;;;;2.50;1.98;;;;;;;;;;12875729;23;20403;-83
2023/06/13 12:07:53;;;;;;;;;;;;;;;;;;12874545;23;20050;-84
2023/06/13 12:12:59;;;;;;;1.92;1.80;;;;;;;;;;12875669;23;20339;-84
2023/06/13 12:18:03;;;;;;;2.13;1.50;;;;;;;;;;12874407;23;20103;-83
2023/06/13 12:23:07;;;;;;;1.67;1.55;;;;;;;;;;12874972;23;20078;-83
2023/06/13 12:28:15;;;;;;;1.47;1.27;;;;;;;;;;12899678;22;20047;-81
2023/06/13 12:33:33;;;;;;;2.58;1.52;;;;;;;;;;12874866;23;20198;-81
2023/06/13 12:38:38;;;;;;;2.50;1.52;;;;;;;;;;12874031;23;20030;-81
2023/06/13 12:43:45;;;;;;;2.03;1.30;;;;;;;;;;12874640;23;20043;-83
2023/06/13 12:48:50;;;;;;;1.55;1.40;;;;;;;;;;12873655;23;20475;-84
2023/06/13 12:54:08;;;;;;;2.85;1.30;;;;;;;;;;12874981;23;20096;-84
2023/06/13 12:59:13;;;;;;;1.52;1.40;;;;;;;;;;12878144;23;20043;-84
2023/06/13 13:04:16;;;;;;;;;;;;;;;;;;12878085;23;20044;-84
2023/06/13 13:09:19;;;;;;;1.98;1.20;;;;;;;;;;12877559;23;20320;-83
2023/06/13 13:14:25;;;;;;;1.60;1.20;;;;;;;;;;12908795;23;20016;-83
2023/06/13 13:19:28;;;;;;;1.30;1.20;;;;;;;;;;12877766;23;20070;-83
2023/06/13 13:24:31;;;;;;;1.65;1.40;;;;;;;;;;12904989;22;20024;-83
2023/06/13 13:29:40;;;;;;;1.65;1.40;;;;;;;;;;12907401;23;20031;-81
2023/06/13 13:34:43;;;;;;;1.77;1.38;;;;;;;;;;12904864;22;20086;-84
2023/06/13 13:39:46;;;;;;;2.13;1.85;;;;;;;;;;12903533;23;20036;-84
2023/06/13 13:44:51;;;;;;;2.15;1.27;;;;;;;;;;12905083;22;20727;-81
2023/06/13 13:49:57;;;;;;;;;;;;;;;;;;12878752;23;20024;-81
2023/06/13 13:55:00;;;;;;;1.75;1.38;;;;;;;;;;12876795;22;20305;-81
2023/06/13 14:00:06;;;;;;;1.30;1.20;;;;;;;;;;12904799;23;20020;-81
2023/06/13 14:05:09;;;;;;;2.75;1.33;;;;;;;;;;12903277;22;20047;-81
2023/06/13 14:10:13;;;;;;;1.52;1.17;;;;;;;;;;12902689;23;20031;-82
2023/06/13 14:15:17;;;;;;;1.45;1.35;;;;;;;;;;12876546;22;20391;-82
2023/06/13 14:20:20;;;;;;;2.45;1.60;;;;;;;;;;12923907;23;20044;-82
2023/06/13 14:25:24;;;;;;;2.55;1.80;;;;;;;;;;12876293;22;20024;-81
2023/06/13 14:30:29;;;;;;;1.73;1.48;;;;;;;;;;12877150;23;20726;-82
2023/06/13 14:35:32;;;;;;;2.90;1.55;;;;;;;;;;12901287;22;20020;-81
2023/06/13 14:40:36;;;;;;;2.72;1.30;;;;;;;;;;12876647;23;20054;-82
2023/06/13 14:45:40;;;;;;;1.40;1.30;;;;;;;;;;12875719;22;20434;-81
2023/06/13 14:50:43;;;;;;;2.33;1.70;;;;;;;;;;12902623;23;20099;-84
2023/06/13 14:55:47;;;;;;;2.40;1.58;;;;;;;;;;12902872;22;20055;-83
2023/06/13 15:00:51;;;;;;;1.33;1.23;;;;;;;;;;12921452;23;20051;-83
2023/06/13 15:05:55;;;;;;;1.40;1.30;;;;;;;;;;12875145;22;20024;-82
2023/06/13 15:10:58;;;;;;;2.25;1.40;;;;;;;;;;12903961;23;20024;-83
2023/06/13 15:16:03;;;;;;;1.80;1.33;;;;;;;;;;12875442;22;20040;-83
2023/06/13 15:21:06;;;;;;;1.25;1.15;;;;;;;;;;12901807;23;20618;-84
2023/06/13 15:26:10;;;;;;;1.80;1.60;;;;;;;;;;12874686;22;20063;-84
2023/06/13 15:31:14;;;;;;;2.10;1.42;;;;;;;;;;12875361;23;20032;-83
2023/06/13 15:36:18;;;;;;;2.58;1.80;;;;;;;;;;12901641;22;20035;-83
2023/06/13 15:41:21;;;;;;;1.60;1.50;;;;;;;;;;12902277;23;20039;-84
2023/06/13 15:46:25;;;;;;;2.00;1.50;;;;;;;;;;12874148;22;20499;-84
2023/06/13 15:51:29;;;;;;;1.92;1.50;;;;;;;;;;12917999;23;20074;-84
2023/06/13 15:56:33;;;;;;;1.27;1.17;;;;;;;;;;12874921;22;20054;-84
2023/06/13 16:01:43;;;;;;;2.22;1.35;;;;;;;;;;12875041;23;20036;-84
2023/06/13 16:06:46;;;;;;;4.22;1.50;;;;;;;;;;12900555;22;20067;-84
2023/06/13 16:11:49;;;;;;;1.55;1.33;;;;;;;;;;12915907;23;20392;-84
2023/06/13 16:16:54;;;;;;;1.58;1.42;;;;;;;;;;12874195;22;20382;-83
2023/06/13 16:21:57;;;;;;;1.95;1.58;;;;;;;;;;12874559;23;20054;-84
2023/06/13 16:27:01;;;;;;;1.63;1.30;;;;;;;;;;12900445;22;20051;-84
2023/06/13 16:32:06;;;;;;;2.22;1.80;;;;;;;;;;12874585;23;20039;-84
2023/06/13 16:37:09;;;;;;;1.55;1.33;;;;;;;;;;12872531;22;20100;-84
2023/06/13 16:42:13;;;;;;;3.67;1.40;;;;;;;;;;12873637;23;20502;-84
2023/06/13 16:47:17;;;;;;;1.38;1.27;;;;;;;;;;12901042;22;20055;-83
2023/06/13 16:52:21;;;;;;;2.97;1.65;;;;;;;;;;12914146;23;20082;-83
2023/06/13 16:57:24;;;;;;;1.70;1.52;;;;;;;;;;12911482;22;20035;-83
2023/06/13 17:02:29;;;;;;;1.67;1.58;;;;;;;;;;12912788;23;20028;-83
2023/06/13 17:07:32;;;;;;;3.07;1.60;;;;;;;;;;12873282;23;20597;-84
2023/06/13 17:12:40;;;;;;;1.83;1.48;;;;;;;;;;12874078;23;20040;-84
2023/06/13 17:17:46;;;;;;;2.30;1.23;;;;;;;;;;12909438;22;20036;-84
2023/06/13 17:22:49;;;;;;;2.23;1.60;;;;;;;;;;12900531;23;20035;-84
2023/06/13 17:27:52;;;;;;;2.25;1.50;;;;;;;;;;12872834;23;20044;-83
2023/06/13 17:32:57;;;;;;;2.00;1.58;;;;;;;;;;12873391;23;20364;-84
2023/06/13 17:38:00;;;;;;;1.50;1.40;;;;;;;;;;12872271;23;20468;-83
2023/06/13 17:43:04;;;;;;;2.33;1.75;;;;;;;;;;12876650;23;20024;-83
2023/06/13 17:48:08;;;;;;;1.52;1.27;;;;;;;;;;12876860;23;20107;-84
2023/06/13 17:53:13;;;;;;;1.47;1.13;;;;;;;;;;12912912;23;20031;-83
2023/06/13 17:58:16;;;;;;;1.13;1.00;;;;;;;;;;12901547;22;20024;-83
2023/06/13 18:03:21;;;;;;;2.03;1.50;;;;;;;;;;12877563;23;20016;-83
2023/06/13 18:08:24;;;;;;;1.73;1.20;;;;;;;;;;12904277;22;20016;-83
2023/06/13 18:13:27;;;;;;;2.20;1.42;;;;;;;;;;12904461;23;20099;-83
2023/06/13 18:18:32;;;;;;;2.20;1.13;;;;;;;;;;12903844;22;20040;-82
2023/06/13 18:23:35;;;;;;;1.60;1.40;;;;;;;;;;12879015;23;20027;-82
2023/06/13 18:28:39;;;;;;;2.95;1.15;;;;;;;;;;12905073;22;20028;-82
2023/06/13 18:33:44;;;;;;;1.30;1.00;;;;;;;;;;12908950;23;20452;-82
2023/06/13 18:38:48;;;;;;;1.13;1.03;;;;;;;;;;12914931;22;20046;-82
2023/06/13 18:43:51;;;;;;;1.48;1.05;;;;;;;;;;12917560;23;20261;-82
2023/06/13 18:48:56;;;;;;;2.10;1.30;;;;;;;;;;12876205;23;20051;-84
2023/06/13 18:53:59;;;;;;;2.97;1.30;;;;;;;;;;12875824;23;20074;-83
2023/06/13 18:59:03;;;;;;;1.30;1.20;;;;;;;;;;12908411;22;20024;-84
2023/06/13 19:04:08;;;;;;;1.10;1.00;;;;;;;;;;12875772;23;20107;-84
2023/06/13 19:09:15;;;;;;;1.57;1.20;;;;;;;;;;12875203;23;20693;-83
2023/06/13 19:14:19;;;;;;;1.83;1.05;;;;;;;;;;12906244;23;20464;-82
2023/06/13 19:19:24;;;;;;;3.08;1.23;;;;;;;;;;12875339;23;20032;-83
2023/06/13 19:24:27;;;;;;;1.30;1.20;;;;;;;;;;12900668;23;20074;-83
2023/06/13 19:29:30;;;;;;;4.57;1.70;;;;;;;;;;12874664;23;20028;-83
2023/06/13 19:34:36;;;;;;;5.20;1.27;;;;;;;;;;12902152;23;20027;-84
2023/06/13 19:39:39;;;;;;;1.65;1.38;;;;;;;;;;12875405;23;20024;-83
2023/06/13 19:44:43;;;;;;;2.22;1.13;;;;;;;;;;12875758;22;20027;-82
2023/06/13 19:49:47;;;;;;;1.30;1.20;;;;;;;;;;12877732;23;20028;-82
2023/06/13 19:54:51;;;;;;;2.92;1.30;;;;;;;;;;12879476;22;20016;-82
2023/06/13 19:59:55;;;;;;;2.90;1.20;;;;;;;;;;12879535;23;20024;-83
2023/06/13 20:05:01;;;;;;;4.50;1.50;;;;;;;;;;12874369;22;20016;-83
2023/06/13 20:10:05;;;;;;;1.83;1.35;;;;;;;;;;12906241;23;20066;-83
2023/06/13 20:15:09;;;;;;;3.15;1.55;;;;;;;;;;12880253;22;20017;-82
2023/06/13 20:20:14;;;;;;;3.22;1.58;;;;;;;;;;12881944;23;20139;-82
2023/06/13 20:25:18;;;;;;;3.13;1.63;;;;;;;;;;12882419;22;20012;-82
2023/06/13 20:30:21;;;;;;;2.10;1.40;;;;;;;;;;12885666;23;20024;-83
2023/06/13 20:35:26;;;;;;;2.22;1.50;;;;;;;;;;12912959;22;20078;-82
2023/06/13 20:40:29;;;;;;;2.72;1.60;;;;;;;;;;12914880;23;20444;-82
2023/06/13 20:45:33;;;;;;;1.98;1.60;;;;;;;;;;12889636;22;20644;-83
2023/06/13 20:50:38;;;;;;;2.65;1.75;;;;;;;;;;12936854;23;20032;-82
2023/06/13 20:55:42;;;;;;;4.45;1.90;;;;;;;;;;12893377;22;20031;-83
2023/06/13 21:00:46;;;;;;;1.77;1.52;;;;;;;;;;12895266;23;20406;-83
2023/06/13 21:05:51;;;;;;;2.35;1.60;;;;;;;;;;12878802;22;20043;-82
2023/06/13 21:10:54;;;;;;;2.45;1.85;;;;;;;;;;12925123;23;20062;-82
2023/06/13 21:15:58;;;;;;;2.00;1.67;;;;;;;;;;12881678;22;20024;-81
2023/06/13 21:21:03;;;;;;;2.15;1.80;;;;;;;;;;12885623;23;20024;-81
2023/06/13 21:26:06;;;;;;;2.15;1.80;;;;;;;;;;12882802;22;20028;-81
2023/06/13 21:31:10;;;;;;;3.00;1.70;;;;;;;;;;12884804;23;20488;-82
2023/06/13 21:36:15;;;;;;;4.38;2.00;;;;;;;;;;12909165;22;20028;-81
2023/06/13 21:41:19;;;;;;;2.25;1.73;;;;;;;;;;12884673;23;20016;-81
2023/06/13 21:46:23;;;;;;;1.55;1.42;;;;;;;;;;12926390;22;20505;-82
2023/06/13 21:51:29;;;;;;;2.08;1.65;;;;;;;;;;12927783;23;20051;-81
2023/06/13 21:56:32;;;;;;;2.42;1.58;;;;;;;;;;12883921;22;20027;-81
2023/06/13 22:01:37;;;;;;;2.08;1.83;;;;;;;;;;12912852;23;20024;-81
2023/06/13 22:06:44;;;;;;;2.70;1.63;;;;;;;;;;12909483;22;20051;-81
2023/06/13 22:11:47;;;;;;;2.72;2.17;;;;;;;;;;12885285;23;20738;-82
2023/06/13 22:16:51;;;;;;;1.90;1.60;;;;;;;;;;12911592;22;20016;-81
2023/06/13 22:21:57;;;;;;;2.10;1.67;;;;;;;;;;12884609;23;20024;-82
2023/06/13 22:27:01;;;;;;;;;;;;;;;;;;12911650;22;20024;-82
2023/06/13 22:32:05;;;;;;;4.05;1.75;;;;;;;;;;12886856;23;19943;-82
2023/06/13 22:37:11;;;;;;;2.22;1.90;;;;;;;;;;12912110;22;20028;-81
2023/06/13 22:42:15;;;;;;;2.03;1.80;;;;;;;;;;12888021;23;20016;-82
2023/06/13 22:47:18;;;;;;;4.50;1.63;;;;;;;;;;12881467;22;20020;-82
2023/06/13 22:52:23;;;;;;;2.10;1.90;;;;;;;;;;12881441;23;20024;-83
2023/06/13 22:57:28;;;;;;;2.53;1.80;;;;;;;;;;12880987;22;20012;-82
2023/06/13 23:02:32;;;;;;;3.23;1.90;;;;;;;;;;12908639;23;20082;-83
2023/06/13 23:07:37;;;;;;;2.97;1.88;;;;;;;;;;12907886;22;20024;-82
2023/06/13 23:12:40;;;;;;;3.35;2.10;;;;;;;;;;12910089;23;20020;-83
2023/06/13 23:17:44;;;;;;;3.13;1.77;;;;;;;;;;12919510;22;20055;-83
2023/06/13 23:22:49;;;;;;;1.95;1.52;;;;;;;;;;12909946;23;20463;-82
2023/06/13 23:27:55;;;;;;;4.13;1.95;;;;;;;;;;12883687;23;20705;-82
2023/06/13 23:33:00;;;;;;;2.85;1.90;;;;;;;;;;12880728;23;20028;-83
2023/06/13 23:38:05;;;;;;;3.00;1.80;;;;;;;;;;12876118;23;20031;-82
2023/06/13 23:43:09;;;;;;;3.08;1.55;;;;;;;;;;12901627;23;20031;-83
2023/06/13 23:48:12;;;;;;;2.55;1.92;;;;;;;;;;12910847;22;20023;-83
2023/06/13 23:53:17;;;;;;;2.05;1.65;;;;;;;;;;12876271;23;20044;-83
2023/06/13 23:58:20;;;;;;;1.90;1.70;;;;;;;;;;12875886;23;20020;-82
